EGNV

Durham Tees Valley Airport

Durham, United Kingdom
METAR EGNV 220950Z 36013KT 9000 BKN010 10/08 Q1022
Observed Flight Rules
May-22 @ 09:50 UTC (28 minutes ago) Marginal Visual Flight Rules
Wind Visibility Clouds
360° at 13 knots 8,996 meters
  • Broken at 1,000' AGL
Temperatures Readings
Current 10°C / 50°F
Dewpoint 8°C / 46°F
Humidity 88%
Altimeter 30.18" Hg
Pressure 1022 hPa
Elevation 37
METAR EGNV 220950Z 36013KT 9000 BKN010 10/08 Q1022
Observed Flight Rules
May-22 @ 09:50 UTC
(28 minutes ago)
MVFR
Wind Visibility
360° at 13 knots 8,996 meters
Clouds
  • Broken at 1,000' AGL
Temperature Dewpoint
10°C / 50°F 8°C / 46°F
Humidity Altimeter Pressure
88% 30.18" Hg 1022 hPa